Time;durP1;ratioP1;P1;durP2;ratioP2;P2;SDS_P1;SDS_P2;PMS_P1;PMS_P2;Temp;Humidity;BMP_temperature;BMP_pressure;BME280_temperature;BME280_humidity;BME280_pressure;Samples;Min_cycle;Max_cycle;Signal;HPM_P1;HPM_P2
2021/12/03 00:01:02;;;;;;;53.00;32.17;;;1.70;99.90;;;;;;5032160;28;20218;-78
2021/12/03 00:03:29;;;;;;;52.05;33.05;;;1.70;99.90;;;;;;5023705;28;20204;-80
2021/12/03 00:05:57;;;;;;;59.00;34.08;;;1.60;99.90;;;;;;5022536;28;20242;-81
2021/12/03 00:08:25;;;;;;;53.20;29.35;;;1.60;99.90;;;;;;5029696;28;20198;-80
2021/12/03 00:10:56;;;;;;;49.03;27.87;;;1.60;99.90;;;;;;5034035;28;20649;-80
2021/12/03 00:13:24;;;;;;;54.30;33.58;;;1.50;99.90;;;;;;5035193;28;21132;-79
2021/12/03 00:15:52;;;;;;;48.95;29.48;;;1.50;99.90;;;;;;5034265;28;20202;-81
2021/12/03 00:18:19;;;;;;;52.58;31.70;;;1.50;99.90;;;;;;5024929;28;20217;-79
2021/12/03 00:20:46;;;;;;;49.65;31.67;;;1.50;99.90;;;;;;5027741;28;20371;-80
2021/12/03 00:23:13;;;;;;;41.65;27.00;;;1.50;99.90;;;;;;5035081;28;20208;-80
2021/12/03 00:25:40;;;;;;;41.70;27.58;;;1.50;99.90;;;;;;5034660;28;20216;-81
2021/12/03 00:28:08;;;;;;;43.03;29.60;;;1.40;99.90;;;;;;5035156;28;20206;-81
2021/12/03 00:30:36;;;;;;;48.03;33.28;;;1.50;99.90;;;;;;5034466;28;20222;-80
2021/12/03 00:33:04;;;;;;;42.00;28.98;;;1.50;99.90;;;;;;5035425;28;20256;-80
2021/12/03 00:35:31;;;;;;;41.97;26.73;;;1.50;99.90;;;;;;5034837;28;20220;-79
2021/12/03 00:37:59;;;;;;;35.67;24.85;;;1.50;99.90;;;;;;5033387;28;20233;-82
2021/12/03 00:40:27;;;;;;;54.10;34.38;;;1.50;99.90;;;;;;5032635;28;20593;-79
2021/12/03 00:42:54;;;;;;;39.05;25.42;;;1.50;99.90;;;;;;5033879;28;20210;-80
2021/12/03 00:45:23;;;;;;;45.47;30.05;;;1.50;99.90;;;;;;5033814;28;20198;-79
2021/12/03 00:47:50;;;;;;;47.55;30.08;;;1.50;99.90;;;;;;5033172;28;20267;-78
2021/12/03 00:50:19;;;;;;;39.35;26.33;;;1.50;99.90;;;;;;5031842;28;20229;-80
2021/12/03 00:52:47;;;;;;;42.40;28.35;;;1.50;99.90;;;;;;5025647;28;20202;-78
2021/12/03 00:55:15;;;;;;;37.30;25.80;;;1.50;99.90;;;;;;5032493;28;20198;-79
2021/12/03 00:57:42;;;;;;;35.28;25.92;;;1.50;99.90;;;;;;5033852;28;20208;-80
2021/12/03 01:00:12;;;;;;;41.88;27.77;;;1.50;99.90;;;;;;5031887;28;20276;-78
2021/12/03 01:02:41;;;;;;;42.60;27.25;;;1.30;99.90;;;;;;5030302;28;20209;-82
2021/12/03 01:05:08;;;;;;;36.22;25.08;;;1.40;99.90;;;;;;5029921;28;20282;-81
2021/12/03 01:07:35;;;;;;;41.33;30.75;;;1.20;99.90;;;;;;5045560;28;20212;-80
2021/12/03 01:10:03;;;;;;;31.63;24.38;;;1.20;99.90;;;;;;5053704;28;20232;-82
2021/12/03 01:12:30;;;;;;;38.28;27.33;;;1.20;99.90;;;;;;5018839;28;20221;-81
2021/12/03 01:14:57;;;;;;;33.70;25.52;;;1.10;99.90;;;;;;5035165;28;20208;-79
2021/12/03 01:17:24;;;;;;;40.60;24.65;;;1.20;99.90;;;;;;5034764;28;20210;-79
2021/12/03 01:19:52;;;;;;;34.55;23.52;;;1.20;99.90;;;;;;5032996;28;20244;-83
2021/12/03 01:22:19;;;;;;;33.40;25.92;;;1.20;99.90;;;;;;5017867;28;20197;-80
2021/12/03 01:24:46;;;;;;;36.70;26.13;;;1.20;99.90;;;;;;5026672;28;20210;-79
2021/12/03 01:27:13;;;;;;;47.97;26.40;;;1.40;99.90;;;;;;5034771;28;20233;-81
2021/12/03 01:29:39;;;;;;;37.63;26.33;;;1.50;99.90;;;;;;5034926;28;20229;-80
2021/12/03 01:32:07;;;;;;;34.03;24.35;;;1.60;99.90;;;;;;5033808;28;20717;-82
2021/12/03 01:34:34;;;;;;;30.67;25.05;;;1.70;99.90;;;;;;5035211;28;20205;-80
2021/12/03 01:37:02;;;;;;;30.80;23.38;;;1.70;99.90;;;;;;5034970;28;20198;-81
2021/12/03 01:39:29;;;;;;;35.70;26.67;;;1.70;99.90;;;;;;5034621;28;20742;-82
2021/12/03 01:41:56;;;;;;;48.45;33.58;;;1.80;99.90;;;;;;5034834;28;20220;-82
2021/12/03 01:44:22;;;;;;;36.72;26.35;;;1.60;99.90;;;;;;5034809;28;20685;-80
2021/12/03 01:46:49;;;;;;;42.00;29.17;;;1.70;99.90;;;;;;5035723;28;20692;-81
2021/12/03 01:49:16;;;;;;;33.97;26.08;;;1.80;99.90;;;;;;5034400;28;20471;-80
2021/12/03 01:51:43;;;;;;;38.35;28.98;;;1.80;99.90;;;;;;5033501;28;20698;-79
2021/12/03 01:54:12;;;;;;;43.17;28.80;;;1.80;99.90;;;;;;5033816;28;20205;-79
2021/12/03 01:56:39;;;;;;;40.92;26.98;;;1.90;99.90;;;;;;5032979;28;20217;-80
2021/12/03 01:59:08;;;;;;;39.53;28.17;;;1.80;99.90;;;;;;5027819;28;20642;-82
2021/12/03 02:01:35;;;;;;;36.88;26.80;;;1.90;99.90;;;;;;5034097;28;20228;-80
2021/12/03 02:04:03;;;;;;;39.30;27.30;;;1.90;99.90;;;;;;5034798;28;20198;-81
2021/12/03 02:06:31;;;;;;;40.75;28.30;;;2.00;99.90;;;;;;5031363;28;20461;-81
2021/12/03 02:08:58;;;;;;;43.97;29.17;;;2.10;99.90;;;;;;5032120;28;20211;-81
2021/12/03 02:11:27;;;;;;;37.05;26.80;;;2.10;99.90;;;;;;5025635;28;20491;-81
2021/12/03 02:13:54;;;;;;;38.90;26.87;;;2.10;99.90;;;;;;5034368;28;20214;-81
2021/12/03 02:16:22;;;;;;;37.60;26.48;;;2.20;99.90;;;;;;5034250;28;20828;-80
2021/12/03 02:18:48;;;;;;;39.13;27.80;;;2.30;99.90;;;;;;5035344;28;20210;-83
2021/12/03 02:21:18;;;;;;;42.70;28.93;;;2.30;99.90;;;;;;5030858;28;20532;-81
2021/12/03 02:23:46;;;;;;;34.35;25.38;;;2.30;99.90;;;;;;5035037;28;20453;-81
2021/12/03 02:26:14;;;;;;;43.60;29.50;;;2.30;99.90;;;;;;5030767;28;20206;-82
2021/12/03 02:28:44;;;;;;;38.58;26.73;;;2.30;99.90;;;;;;5033624;28;20204;-82
2021/12/03 02:31:13;;;;;;;40.50;25.83;;;2.30;99.90;;;;;;5033296;28;20592;-82
2021/12/03 02:33:40;;;;;;;42.20;26.25;;;2.30;99.90;;;;;;5032355;28;20213;-81
2021/12/03 02:36:08;;;;;;;39.97;26.83;;;2.30;99.90;;;;;;5029266;28;20202;-80
2021/12/03 02:38:36;;;;;;;42.70;27.90;;;2.30;99.90;;;;;;5033546;28;20449;-81
2021/12/03 02:41:04;;;;;;;38.30;26.58;;;2.30;99.90;;;;;;5032927;28;20476;-80
2021/12/03 02:43:31;;;;;;;39.50;26.03;;;2.30;99.90;;;;;;5034727;28;20214;-80
2021/12/03 02:45:58;;;;;;;40.43;24.97;;;2.30;99.90;;;;;;5034799;28;20455;-81
2021/12/03 02:48:27;;;;;;;37.33;24.73;;;2.40;99.90;;;;;;5036058;28;20463;-82
2021/12/03 02:50:55;;;;;;;38.60;26.70;;;2.40;99.90;;;;;;5037017;28;20253;-83
2021/12/03 02:53:22;;;;;;;43.77;26.87;;;2.50;99.90;;;;;;5036034;28;20460;-82
2021/12/03 02:55:51;;;;;;;44.70;26.17;;;2.50;99.90;;;;;;5036976;28;20856;-80
2021/12/03 02:58:18;;;;;;;34.77;24.73;;;2.40;99.90;;;;;;5035160;28;20461;-81
2021/12/03 03:00:45;;;;;;;36.20;26.20;;;2.50;99.90;;;;;;5031882;28;20487;-80
2021/12/03 03:03:12;;;;;;;37.40;26.85;;;2.60;99.90;;;;;;5034446;28;20459;-82
2021/12/03 03:05:39;;;;;;;36.40;22.47;;;2.60;99.90;;;;;;5035244;28;20793;-82
2021/12/03 03:08:06;;;;;;;33.53;24.10;;;2.60;99.90;;;;;;5038383;28;20531;-79
2021/12/03 03:10:36;;;;;;;42.80;26.77;;;2.60;99.90;;;;;;5035848;28;20997;-81
2021/12/03 03:13:04;;;;;;;38.97;25.10;;;2.60;99.90;;;;;;5036271;28;20488;-81
2021/12/03 03:15:31;;;;;;;41.47;26.63;;;2.60;99.90;;;;;;5038026;28;22057;-82
2021/12/03 03:17:57;;;;;;;40.67;26.90;;;2.60;99.90;;;;;;5037995;28;20456;-81
2021/12/03 03:20:24;;;;;;;37.78;24.80;;;2.60;99.90;;;;;;5038018;28;20477;-81
2021/12/03 03:22:52;;;;;;;44.87;28.53;;;2.50;99.90;;;;;;5037484;28;20694;-80
2021/12/03 03:25:20;;;;;;;37.27;23.80;;;2.50;99.90;;;;;;5037207;28;20459;-80
2021/12/03 03:27:47;;;;;;;37.38;25.38;;;2.50;99.90;;;;;;5039059;28;20832;-79
2021/12/03 03:30:18;;;;;;;40.90;24.80;;;2.50;99.90;;;;;;5023337;28;20224;-79
2021/12/03 03:32:45;;;;;;;35.93;25.57;;;2.60;99.90;;;;;;5037894;28;20486;-80
2021/12/03 03:35:12;;;;;;;44.43;26.63;;;2.60;99.90;;;;;;5037217;28;20449;-79
2021/12/03 03:37:40;;;;;;;48.30;27.37;;;2.40;99.90;;;;;;5037019;28;20460;-79
2021/12/03 03:40:09;;;;;;;49.17;27.63;;;2.40;99.90;;;;;;5035486;28;20473;-81
2021/12/03 03:42:37;;;;;;;42.13;25.97;;;2.40;99.90;;;;;;5035347;28;20459;-79
2021/12/03 03:45:07;;;;;;;49.92;28.10;;;2.50;99.90;;;;;;5033178;28;20462;-81
2021/12/03 03:47:35;;;;;;;48.38;28.17;;;2.40;99.90;;;;;;5036854;28;20230;-81
2021/12/03 03:50:02;;;;;;;52.80;30.30;;;2.40;99.90;;;;;;5035521;28;20364;-81
2021/12/03 03:52:29;;;;;;;46.53;26.40;;;2.50;99.90;;;;;;5035449;28;20492;-80
2021/12/03 03:54:56;;;;;;;43.17;27.25;;;2.40;99.90;;;;;;5036501;28;20206;-80
2021/12/03 03:57:23;;;;;;;48.13;27.77;;;2.50;99.90;;;;;;5036727;28;20217;-81
2021/12/03 03:59:50;;;;;;;47.80;27.10;;;2.50;99.90;;;;;;5035937;28;20479;-79
2021/12/03 04:02:17;;;;;;;43.30;25.43;;;2.50;99.90;;;;;;5016728;28;20449;-81
2021/12/03 04:04:45;;;;;;;49.40;27.93;;;2.50;99.90;;;;;;5035444;28;20453;-81
2021/12/03 04:07:12;;;;;;;57.17;31.20;;;2.50;99.90;;;;;;5035511;28;20427;-80
2021/12/03 04:09:39;;;;;;;47.13;28.00;;;2.50;99.90;;;;;;5036033;28;20234;-80
2021/12/03 04:12:07;;;;;;;49.25;27.45;;;2.50;99.90;;;;;;5035668;28;20706;-81
2021/12/03 04:14:33;;;;;;;49.40;30.30;;;2.50;99.90;;;;;;5037469;28;20198;-81
2021/12/03 04:17:00;;;;;;;41.57;25.53;;;2.40;99.90;;;;;;5033010;28;20459;-80
2021/12/03 04:19:27;;;;;;;46.72;25.95;;;2.40;99.90;;;;;;5036614;28;20480;-82
2021/12/03 04:21:56;;;;;;;50.80;27.38;;;2.50;99.90;;;;;;5035528;28;20209;-81
2021/12/03 04:24:23;;;;;;;43.77;26.70;;;2.50;99.90;;;;;;5018701;28;20224;-79
2021/12/03 04:26:50;;;;;;;45.25;24.55;;;2.60;99.90;;;;;;5035422;28;20448;-80
2021/12/03 04:29:17;;;;;;;44.90;25.07;;;2.60;99.90;;;;;;5035915;28;20714;-81
2021/12/03 04:31:44;;;;;;;44.33;25.20;;;2.60;99.90;;;;;;5035331;28;20481;-81
2021/12/03 04:34:10;;;;;;;43.33;26.60;;;2.60;99.90;;;;;;5025987;28;20455;-80
2021/12/03 04:36:37;;;;;;;40.40;22.90;;;2.70;99.90;;;;;;5035766;28;20476;-81
2021/12/03 04:39:05;;;;;;;38.90;24.47;;;2.70;99.90;;;;;;5035989;28;20205;-82
2021/12/03 04:41:32;;;;;;;40.57;23.77;;;2.70;99.90;;;;;;5034486;28;20478;-82
2021/12/03 04:43:59;;;;;;;39.93;24.53;;;2.80;99.90;;;;;;5035249;28;20449;-80
2021/12/03 04:46:26;;;;;;;42.97;23.83;;;2.70;99.90;;;;;;5034972;28;20837;-79
2021/12/03 04:48:52;;;;;;;40.57;23.40;;;2.70;99.90;;;;;;5028775;28;20457;-81
2021/12/03 04:51:19;;;;;;;34.83;21.67;;;2.60;99.90;;;;;;5034411;28;20457;-81
2021/12/03 04:53:46;;;;;;;31.10;20.73;;;2.70;99.90;;;;;;5034970;28;21009;-80
2021/12/03 04:56:15;;;;;;;36.13;18.77;;;2.70;99.90;;;;;;5035803;28;20471;-80
2021/12/03 04:58:42;;;;;;;29.50;18.87;;;2.80;99.90;;;;;;5035239;28;20476;-80
2021/12/03 05:01:10;;;;;;;34.20;18.37;;;2.80;99.90;;;;;;5034043;28;20468;-81
2021/12/03 05:03:37;;;;;;;35.47;22.30;;;2.80;99.90;;;;;;5034202;28;20445;-79
2021/12/03 05:06:08;;;;;;;34.60;20.73;;;2.80;99.90;;;;;;5034026;28;20456;-79
2021/12/03 05:08:36;;;;;;;29.27;16.43;;;2.80;99.90;;;;;;5035458;28;20510;-81
2021/12/03 05:11:03;;;;;;;33.67;16.67;;;2.80;99.90;;;;;;5034274;28;20473;-81
2021/12/03 05:13:34;;;;;;;32.20;18.90;;;2.80;99.90;;;;;;5034726;28;20504;-81
2021/12/03 05:16:01;;;;;;;32.63;18.10;;;2.90;99.90;;;;;;5034625;28;20964;-79
2021/12/03 05:18:29;;;;;;;29.93;18.20;;;2.90;99.90;;;;;;5033325;28;20899;-81
2021/12/03 05:20:59;;;;;;;30.40;20.10;;;3.00;99.90;;;;;;5033242;28;20481;-81
2021/12/03 05:23:27;;;;;;;35.43;20.03;;;3.00;99.90;;;;;;5033560;28;20567;-81
2021/12/03 05:25:55;;;;;;;37.07;19.93;;;3.00;99.90;;;;;;5035395;28;20460;-82
2021/12/03 05:28:22;;;;;;;26.10;16.83;;;2.90;99.90;;;;;;5034992;28;20445;-82
2021/12/03 05:30:51;;;;;;;30.73;18.13;;;2.90;99.90;;;;;;5033398;28;20477;-78
2021/12/03 05:33:19;;;;;;;32.07;18.70;;;3.00;99.90;;;;;;5033826;28;20483;-80
2021/12/03 05:35:46;;;;;;;30.93;19.50;;;3.00;99.90;;;;;;5031091;28;20543;-80
2021/12/03 05:38:13;;;;;;;27.03;17.80;;;3.00;99.90;;;;;;5023647;28;20974;-79
2021/12/03 05:40:40;;;;;;;31.90;18.77;;;3.00;99.90;;;;;;5027592;28;20480;-81
2021/12/03 05:43:07;;;;;;;29.20;18.50;;;3.00;99.90;;;;;;5034967;28;20452;-82
2021/12/03 05:45:36;;;;;;;30.13;19.90;;;3.10;99.90;;;;;;5033836;28;20453;-79
2021/12/03 05:48:05;;;;;;;36.37;20.33;;;3.10;99.90;;;;;;5034462;28;20456;-80
2021/12/03 05:50:32;;;;;;;25.27;16.70;;;3.00;99.90;;;;;;5032285;28;20477;-80
2021/12/03 05:53:00;;;;;;;25.47;16.37;;;3.00;99.90;;;;;;5033164;28;20919;-81
2021/12/03 05:55:27;;;;;;;31.92;18.25;;;3.10;99.90;;;;;;5034815;28;20508;-84
2021/12/03 05:57:54;;;;;;;24.30;16.17;;;3.10;99.90;;;;;;5027515;28;20202;-85
2021/12/03 06:00:24;;;;;;;24.83;16.53;;;3.10;99.90;;;;;;5039103;28;20472;-85
2021/12/03 06:02:52;;;;;;;25.83;15.13;;;3.10;99.90;;;;;;5040033;28;20448;-86
2021/12/03 06:05:21;;;;;;;22.47;13.80;;;3.00;99.90;;;;;;5038140;28;20484;-84
2021/12/03 06:07:48;;;;;;;20.43;13.23;;;4.10;99.90;;;;;;5038306;28;20459;-83
2021/12/03 06:10:14;;;;;;;21.37;12.60;;;4.40;99.90;;;;;;5038233;28;20479;-84
2021/12/03 06:12:41;;;;;;;16.77;12.67;;;4.30;99.90;;;;;;5033851;28;20504;-83
2021/12/03 06:15:09;;;;;;;29.03;16.03;;;4.00;99.90;;;;;;5010282;28;21964;-86
2021/12/03 06:17:35;;;;;;;19.50;14.07;;;3.90;99.90;;;;;;5036184;28;20472;-83
2021/12/03 06:20:03;;;;;;;20.60;15.10;;;3.80;99.90;;;;;;5031662;28;20470;-83
2021/12/03 06:22:31;;;;;;;28.77;15.40;;;3.60;99.90;;;;;;5041734;28;20827;-83
2021/12/03 06:25:00;;;;;;;21.53;15.00;;;3.60;99.90;;;;;;5040444;28;20457;-83
2021/12/03 06:27:29;;;;;;;27.47;16.50;;;3.50;99.90;;;;;;5037932;28;20530;-83
2021/12/03 06:29:56;;;;;;;24.47;15.30;;;3.50;99.90;;;;;;5036888;28;20595;-82
2021/12/03 06:32:22;;;;;;;25.80;14.53;;;3.50;99.90;;;;;;5037057;28;20515;-83
2021/12/03 06:34:49;;;;;;;26.90;15.57;;;3.50;99.90;;;;;;5032432;28;20825;-83
2021/12/03 06:37:16;;;;;;;25.93;13.43;;;3.50;99.90;;;;;;5034302;28;20453;-83
2021/12/03 06:39:45;;;;;;;26.30;15.90;;;3.50;99.90;;;;;;5037253;28;20476;-84
2021/12/03 06:42:12;;;;;;;25.33;16.13;;;3.50;99.90;;;;;;5037429;28;20479;-83
2021/12/03 06:44:39;;;;;;;34.67;15.90;;;3.50;99.90;;;;;;5036319;28;20457;-84
2021/12/03 06:47:05;;;;;;;26.80;16.67;;;3.50;99.90;;;;;;5038029;28;20465;-84
2021/12/03 06:49:33;;;;;;;28.83;15.40;;;3.40;99.90;;;;;;5037022;28;20479;-82
2021/12/03 06:52:03;;;;;;;27.00;16.07;;;3.40;99.90;;;;;;5039743;28;20547;-81
2021/12/03 06:54:31;;;;;;;24.23;14.90;;;3.40;99.90;;;;;;5035701;28;20579;-85
2021/12/03 06:57:01;;;;;;;24.70;15.23;;;3.50;99.90;;;;;;5035241;28;20536;-83
2021/12/03 06:59:28;;;;;;;37.90;16.20;;;3.50;99.90;;;;;;5039838;28;20469;-83
2021/12/03 07:01:55;;;;;;;27.67;16.40;;;3.60;99.90;;;;;;5036653;28;20456;-84
2021/12/03 07:04:23;;;;;;;29.33;16.97;;;3.50;99.90;;;;;;5037454;28;20539;-87
2021/12/03 07:06:49;;;;;;;23.33;15.43;;;3.50;99.90;;;;;;5037942;28;20454;-83
2021/12/03 07:09:17;;;;;;;26.20;16.37;;;3.50;99.90;;;;;;5037360;28;20475;-84
2021/12/03 07:11:44;;;;;;;28.93;16.40;;;3.60;99.90;;;;;;5036582;28;20449;-84
2021/12/03 07:14:12;;;;;;;28.40;16.67;;;3.50;99.90;;;;;;5037312;28;20530;-85
2021/12/03 07:16:39;;;;;;;25.23;15.93;;;3.40;99.90;;;;;;5036723;28;20449;-83
2021/12/03 07:19:06;;;;;;;31.37;16.03;;;3.50;99.90;;;;;;5037692;28;20457;-83
2021/12/03 07:21:33;;;;;;;27.37;15.80;;;3.40;99.90;;;;;;5036448;28;20455;-82
2021/12/03 07:24:00;;;;;;;33.33;19.53;;;3.50;99.90;;;;;;5037109;28;20484;-84
2021/12/03 07:26:27;;;;;;;31.43;18.30;;;3.50;99.90;;;;;;5036296;28;20453;-85
2021/12/03 07:28:55;;;;;;;31.20;17.43;;;3.50;99.90;;;;;;5035432;28;20449;-83
2021/12/03 07:31:23;;;;;;;33.70;18.20;;;3.40;99.90;;;;;;5035220;28;20457;-83
2021/12/03 07:33:51;;;;;;;37.10;17.10;;;3.50;99.90;;;;;;5036038;28;20487;-86
2021/12/03 07:36:18;;;;;;;35.77;17.80;;;3.50;99.90;;;;;;5039084;28;20548;-85
2021/12/03 07:38:44;;;;;;;30.10;16.13;;;3.50;99.90;;;;;;5035680;28;20483;-82
2021/12/03 07:41:11;;;;;;;39.40;19.17;;;3.60;99.90;;;;;;5037225;28;20485;-86
2021/12/03 07:43:40;;;;;;;33.23;18.43;;;3.60;99.90;;;;;;5036676;28;20453;-83
2021/12/03 07:46:07;;;;;;;32.60;15.97;;;3.60;99.90;;;;;;5026761;28;20909;-83
2021/12/03 07:48:36;;;;;;;32.90;17.00;;;3.70;99.90;;;;;;5020015;28;20457;-84
2021/12/03 07:51:02;;;;;;;36.30;19.73;;;3.70;99.90;;;;;;5020089;28;20468;-83
2021/12/03 07:53:29;;;;;;;34.00;15.80;;;3.60;99.90;;;;;;5027544;28;20491;-83
2021/12/03 07:55:56;;;;;;;29.70;17.40;;;3.70;99.90;;;;;;5024481;28;20459;-85
2021/12/03 07:58:23;;;;;;;32.80;17.97;;;3.70;99.90;;;;;;5026446;28;20463;-83
2021/12/03 08:00:50;;;;;;;29.73;17.60;;;3.70;99.90;;;;;;5030493;28;20469;-83
2021/12/03 08:03:20;;;;;;;35.40;16.97;;;3.80;99.90;;;;;;5022313;28;20444;-83
2021/12/03 08:05:48;;;;;;;30.27;17.20;;;3.80;99.90;;;;;;5024137;28;20496;-82
2021/12/03 08:08:21;;;;;;;29.97;16.57;;;3.80;99.90;;;;;;5022309;28;20437;-86
2021/12/03 08:10:48;;;;;;;29.73;15.97;;;3.90;99.90;;;;;;5020704;28;20476;-82
2021/12/03 08:13:18;;;;;;;26.37;15.10;;;3.90;99.90;;;;;;5026715;28;20473;-84
2021/12/03 08:15:45;;;;;;;28.60;16.33;;;3.90;99.90;;;;;;5022608;28;20464;-84
2021/12/03 08:18:11;;;;;;;23.97;13.17;;;3.90;99.90;;;;;;5022088;28;20449;-83
2021/12/03 08:20:38;;;;;;;29.13;14.07;;;3.90;99.90;;;;;;5032775;28;20480;-82
2021/12/03 08:23:06;;;;;;;26.47;13.33;;;4.00;99.90;;;;;;5034249;28;20949;-81
2021/12/03 08:25:33;;;;;;;21.00;13.40;;;4.10;99.90;;;;;;5030944;28;20541;-83
2021/12/03 08:28:00;;;;;;;25.33;13.27;;;4.10;99.90;;;;;;5026609;28;20468;-83
2021/12/03 08:30:29;;;;;;;14.53;11.27;;;4.00;99.90;;;;;;5028274;28;20491;-83
2021/12/03 08:32:56;;;;;;;18.80;10.20;;;4.10;99.90;;;;;;5036162;28;20450;-82
2021/12/03 08:35:25;;;;;;;20.53;11.87;;;4.10;99.90;;;;;;5036212;28;20794;-83
2021/12/03 08:37:53;;;;;;;17.23;10.37;;;4.00;99.90;;;;;;5034195;28;20892;-82
2021/12/03 08:40:22;;;;;;;21.07;11.00;;;4.10;99.90;;;;;;5032767;28;20849;-84
2021/12/03 08:42:49;;;;;;;19.83;9.83;;;4.20;99.90;;;;;;5027666;28;20975;-81
2021/12/03 08:45:18;;;;;;;18.77;9.23;;;4.30;99.90;;;;;;5032314;28;20457;-81
2021/12/03 08:47:49;;;;;;;17.50;9.73;;;4.30;99.90;;;;;;5019413;28;20482;-82
2021/12/03 08:50:19;;;;;;;22.77;8.70;;;4.30;99.90;;;;;;5024823;28;20472;-83
2021/12/03 08:53:03;;;;;;;16.60;7.43;;;4.20;99.90;;;;;;5028827;28;20553;-83
2021/12/03 08:55:31;;;;;;;16.90;8.50;;;4.20;99.90;;;;;;5032256;28;20460;-82
2021/12/03 08:57:58;;;;;;;13.77;7.23;;;4.00;99.90;;;;;;5029953;28;20463;-83
2021/12/03 09:00:24;;;;;;;16.07;7.00;;;4.10;99.90;;;;;;5029845;28;20464;-84
2021/12/03 09:02:51;;;;;;;18.70;6.20;;;4.20;99.90;;;;;;5034035;28;20441;-84
2021/12/03 09:05:18;;;;;;;14.53;7.17;;;4.20;99.90;;;;;;5028855;28;20445;-82
2021/12/03 09:07:45;;;;;;;17.70;5.53;;;4.20;99.90;;;;;;5034875;28;20453;-86
2021/12/03 09:10:14;;;;;;;16.07;6.17;;;4.30;99.90;;;;;;5031932;28;20476;-82
2021/12/03 09:12:42;;;;;;;13.00;5.57;;;4.30;99.90;;;;;;5032218;28;20457;-83
2021/12/03 09:15:12;;;;;;;16.30;5.27;;;4.30;99.90;;;;;;5033873;28;20524;-84
2021/12/03 09:17:47;;;;;;;13.30;5.47;;;4.40;99.90;;;;;;5024268;28;20557;-86
2021/12/03 09:23:01;;;;;;;10.17;5.23;;;4.60;99.90;;;;;;5033472;28;20481;-83
2021/12/03 09:25:33;;;;;;;7.93;5.00;;;4.60;99.90;;;;;;5034175;28;20874;-82
2021/12/03 09:28:03;;;;;;;16.43;4.83;;;4.60;99.90;;;;;;5028829;28;20541;-84
2021/12/03 09:30:36;;;;;;;13.60;4.83;;;4.60;99.90;;;;;;5033003;28;20502;-84
2021/12/03 09:33:03;;;;;;;14.87;4.83;;;4.40;99.90;;;;;;5034427;28;20433;-81
2021/12/03 09:35:30;;;;;;;8.20;4.00;;;4.50;99.90;;;;;;5017180;28;20468;-84
2021/12/03 09:37:58;;;;;;;16.17;4.60;;;4.50;99.90;;;;;;5014178;28;20480;-81
2021/12/03 09:40:29;;;;;;;10.90;4.60;;;4.60;99.90;;;;;;5015560;28;20469;-82
2021/12/03 09:42:56;;;;;;;13.03;4.57;;;4.60;99.90;;;;;;5012234;28;20456;-84
2021/12/03 09:45:25;;;;;;;12.07;4.40;;;4.60;99.90;;;;;;5018850;28;20448;-81
2021/12/03 09:47:53;;;;;;;10.50;4.23;;;4.90;99.90;;;;;;5054439;28;20463;-82
2021/12/03 09:50:19;;;;;;;12.60;3.97;;;4.90;99.90;;;;;;5052837;28;20479;-81
2021/12/03 09:53:01;;;;;;;11.83;4.13;;;5.00;99.90;;;;;;5045448;28;20450;-84
2021/12/03 09:55:29;;;;;;;10.10;4.33;;;5.00;99.90;;;;;;5038450;28;20530;-82
2021/12/03 09:58:04;;;;;;;10.80;3.90;;;5.00;99.90;;;;;;5040142;28;20873;-81
2021/12/03 10:00:36;;;;;;;15.73;4.67;;;5.20;99.90;;;;;;5039479;28;20560;-84
2021/12/03 10:03:31;;;;;;;15.33;4.83;;;5.40;99.90;;;;;;5041048;28;20455;-83
2021/12/03 10:14:42;;;;;;;9.13;3.83;;;5.10;99.90;;;;;;5035128;28;20469;-81
2021/12/03 10:17:31;;;;;;;9.33;4.20;;;5.20;99.90;;;;;;5032814;28;20456;-81
2021/12/03 10:20:12;;;;;;;12.17;5.77;;;5.10;99.90;;;;;;5027704;28;20507;-83
2021/12/03 10:33:58;;;;;;;10.10;4.20;;;5.40;99.90;;;;;;4991632;28;20843;-82
2021/12/03 10:36:43;;;;;;;11.20;5.07;;;5.60;99.90;;;;;;5035659;28;20466;-82
2021/12/03 10:39:23;;;;;;;10.67;4.00;;;5.70;99.90;;;;;;5025920;28;22238;-81
2021/12/03 10:42:01;;;;;;;14.73;5.97;;;5.50;99.90;;;;;;5029265;28;20832;-82
2021/12/03 10:44:44;;;;;;;15.90;4.07;;;5.60;99.90;;;;;;5036573;28;20451;-82
2021/12/03 10:50:11;;;;;;;12.50;4.10;;;5.60;99.90;;;;;;5036921;28;20474;-81
2021/12/03 10:52:51;;;;;;;12.97;4.00;;;5.60;99.90;;;;;;5038737;28;20469;-81
2021/12/03 11:01:30;;;;;;;12.90;4.20;;;5.40;99.90;;;;;;5036979;28;20456;-84
2021/12/03 11:29:49;;;;;;;6.10;3.00;;;5.20;99.90;;;;;;4983173;28;20457;-84
2021/12/03 11:41:40;;;;;;;12.73;3.57;;;5.10;99.90;;;;;;5027505;28;20461;-80
2021/12/03 11:47:22;;;;;;;7.70;3.20;;;5.10;99.90;;;;;;5030512;28;20480;-82
2021/12/03 13:12:23;;;;;;;6.30;3.07;;;6.00;99.90;;;;;;5034965;28;20439;-81
2021/12/03 13:15:27;;;;;;;9.03;2.73;;;5.90;99.90;;;;;;5035665;28;20535;-83
2021/12/03 14:00:07;;;;;;;6.90;2.37;;;5.80;99.90;;;;;;5022438;28;20465;-78
2021/12/03 14:40:12;;;;;;;4.77;2.77;;;5.60;99.90;;;;;;5028556;28;20455;-79
2021/12/03 14:42:52;;;;;;;7.77;2.40;;;5.60;99.90;;;;;;5030078;28;20457;-79
2021/12/03 14:45:33;;;;;;;7.03;2.33;;;5.50;99.90;;;;;;5025738;28;20445;-79
2021/12/03 14:51:08;;;;;;;3.90;2.20;;;5.50;99.90;;;;;;5024624;28;20582;-81
2021/12/03 14:53:53;;;;;;;5.47;2.13;;;5.60;99.90;;;;;;5024869;28;20523;-79
2021/12/03 14:56:23;;;;;;;4.53;2.20;;;5.50;99.90;;;;;;5023171;28;20976;-81
2021/12/03 14:59:16;;;;;;;4.30;1.90;;;5.40;99.90;;;;;;5035028;28;20504;-80
2021/12/03 15:01:50;;;;;;;5.03;2.23;;;5.50;99.90;;;;;;5034789;28;20512;-79
2021/12/03 15:04:48;;;;;;;3.80;2.27;;;5.40;99.90;;;;;;5034864;28;20446;-79
2021/12/03 15:07:16;;;;;;;4.33;2.33;;;5.40;99.90;;;;;;5035332;28;20444;-79
2021/12/03 15:09:44;;;;;;;4.10;2.10;;;5.30;99.90;;;;;;5033829;28;20503;-82
2021/12/03 15:12:38;;;;;;;6.70;2.77;;;5.40;99.90;;;;;;5034420;28;20480;-83
2021/12/03 15:15:47;;;;;;;4.40;2.13;;;5.30;99.90;;;;;;5027598;28;20486;-80
2021/12/03 15:21:24;;;;;;;4.50;2.57;;;5.10;99.90;;;;;;5014937;28;21022;-81
2021/12/03 15:24:33;;;;;;;7.23;2.70;;;5.00;99.90;;;;;;5027852;28;20511;-80
2021/12/03 15:32:35;;;;;;;6.17;3.00;;;4.70;99.90;;;;;;5033625;28;20438;-82
2021/12/03 15:35:07;;;;;;;5.63;3.23;;;4.60;99.90;;;;;;5023829;28;20488;-82
2021/12/03 15:37:59;;;;;;;7.53;2.90;;;4.60;99.90;;;;;;5037206;28;20519;-82
2021/12/03 15:57:11;;;;;;;5.43;3.10;;;4.30;99.90;;;;;;5039484;28;20444;-81
2021/12/03 16:05:11;;;;;;;5.33;4.33;;;4.10;99.90;;;;;;5018671;28;20440;-81
2021/12/03 16:10:27;;;;;;;6.97;4.60;;;3.90;99.90;;;;;;5039627;28;20525;-84
2021/12/03 16:13:07;;;;;;;10.00;5.47;;;4.00;99.90;;;;;;5040969;28;20503;-84
2021/12/03 16:18:51;;;;;;;8.00;4.30;;;3.90;99.90;;;;;;5041020;28;20448;-84
2021/12/03 16:21:35;;;;;;;6.63;4.83;;;3.90;99.90;;;;;;5039140;28;20461;-84
2021/12/03 16:27:19;;;;;;;20.87;5.80;;;3.90;99.90;;;;;;4998318;28;20469;-85
2021/12/03 16:43:45;;;;;;;9.20;6.70;;;3.90;99.90;;;;;;5041560;28;20444;-86
2021/12/03 16:46:28;;;;;;;8.27;4.80;;;3.80;99.90;;;;;;5039278;28;20449;-84
2021/12/03 16:51:42;;;;;;;10.17;6.00;;;3.80;99.90;;;;;;5041128;28;20945;-83
2021/12/03 16:54:10;;;;;;;12.17;4.70;;;3.80;99.90;;;;;;5038954;28;20536;-81
2021/12/03 16:56:43;;;;;;;9.60;6.50;;;3.80;99.90;;;;;;5027701;28;20493;-83
2021/12/03 16:59:11;;;;;;;6.90;5.17;;;3.80;99.90;;;;;;5037549;28;20457;-81
2021/12/03 17:01:41;;;;;;;9.90;6.00;;;3.80;99.90;;;;;;5059392;28;20538;-82
2021/12/03 17:04:21;;;;;;;7.07;4.80;;;3.90;99.90;;;;;;5059484;28;20456;-81
2021/12/03 17:10:01;;;;;;;6.97;4.33;;;3.90;99.90;;;;;;5042464;28;20453;-82
2021/12/03 17:15:21;;;;;;;7.63;4.43;;;3.90;99.90;;;;;;5032560;28;20469;-83
2021/12/03 17:48:55;;;;;;;10.10;5.60;;;3.80;99.90;;;;;;5073550;28;20496;-82
2021/12/03 17:54:24;;;;;;;8.10;4.40;;;3.90;99.90;;;;;;5074784;28;20428;-79
2021/12/03 17:56:55;;;;;;;9.47;4.77;;;3.90;99.90;;;;;;5076740;28;20522;-81
2021/12/03 17:59:25;;;;;;;15.00;4.90;;;3.90;99.90;;;;;;5076823;28;20475;-82
2021/12/03 18:01:56;;;;;;;7.90;4.83;;;3.90;99.90;;;;;;5074783;28;20513;-82
2021/12/03 18:04:34;;;;;;;13.57;4.23;;;3.90;99.90;;;;;;5076988;28;20457;-81
2021/12/03 18:07:09;;;;;;;6.60;4.47;;;3.90;99.90;;;;;;5055838;28;20885;-82
2021/12/03 18:12:48;;;;;;;12.13;4.70;;;3.90;99.90;;;;;;5046860;28;20444;-81
2021/12/03 18:16:00;;;;;;;7.90;4.90;;;4.00;99.90;;;;;;5052804;28;20440;-81
2021/12/03 18:19:05;;;;;;;7.80;4.40;;;4.00;99.90;;;;;;5054431;28;21003;-82
2021/12/03 18:43:48;;;;;;;7.00;4.67;;;4.00;99.90;;;;;;5063719;28;20541;-83
2021/12/03 18:51:49;;;;;;;5.50;4.33;;;4.00;99.90;;;;;;5065624;28;20448;-83
2021/12/03 18:54:30;;;;;;;10.97;4.70;;;4.00;99.90;;;;;;5064904;28;20510;-83
2021/12/03 18:57:04;;;;;;;7.30;4.70;;;4.00;99.90;;;;;;5063428;28;20456;-83